Time;durP1;ratioP1;P1;durP2;ratioP2;P2;SDS_P1;SDS_P2;PMS_P1;PMS_P2;Temp;Humidity;BMP_temperature;BMP_pressure;BME280_temperature;BME280_humidity;BME280_pressure;Samples;Min_cycle;Max_cycle;Signal;HPM_P1;HPM_P2
2022/11/23 00:01:33;;;;;;;65.68;53.87;;;20.70;50.80;;;;;;4867889;55;21024;-40
2022/11/23 00:06:34;;;;;;;61.83;52.95;;;20.70;50.80;;;;;;4831216;55;21008;-45
2022/11/23 00:11:35;;;;;;;61.90;52.80;;;20.70;51.00;;;;;;4695131;59;21024;-42
2022/11/23 00:16:36;;;;;;;58.03;51.45;;;20.70;50.80;;;;;;4827334;55;21004;-37
2022/11/23 00:21:37;;;;;;;60.75;51.17;;;20.70;50.80;;;;;;4694505;55;21012;-40
2022/11/23 00:26:38;;;;;;;59.67;49.97;;;20.70;50.80;;;;;;4923168;55;21054;-33
2022/11/23 00:31:39;;;;;;;60.70;51.22;;;20.70;50.80;;;;;;4790764;55;21032;-39
2022/11/23 00:36:40;;;;;;;60.67;51.40;;;20.70;50.90;;;;;;4773813;55;21011;-39
2022/11/23 00:41:40;;;;;;;56.97;47.80;;;20.70;50.80;;;;;;4694411;59;21004;-34
2022/11/23 00:46:41;;;;;;;57.70;49.25;;;20.70;50.80;;;;;;4739365;55;21028;-41
2022/11/23 00:51:42;;;;;;;59.55;49.78;;;20.70;50.80;;;;;;4984152;55;21470;-39
2022/11/23 00:56:43;;;;;;;57.25;48.72;;;20.70;50.90;;;;;;4768759;55;21533;-38
2022/11/23 01:01:44;;;;;;;54.70;47.03;;;20.70;50.90;;;;;;4798540;55;21120;-40
2022/11/23 01:06:44;;;;;;;58.55;49.97;;;20.70;51.40;;;;;;4866212;55;21009;-43
2022/11/23 01:11:45;;;;;;;52.80;45.30;;;20.70;50.90;;;;;;5112984;55;21059;-37
2022/11/23 01:16:46;;;;;;;54.70;45.92;;;20.70;50.90;;;;;;4765781;55;21044;-38
2022/11/23 01:21:47;;;;;;;55.72;46.53;;;20.70;50.90;;;;;;4714295;55;21517;-37
2022/11/23 01:26:54;;;;;;;51.85;44.13;;;20.70;50.90;;;;;;4822343;55;21008;-39
2022/11/23 01:31:55;;;;;;;53.50;45.12;;;20.70;50.90;;;;;;4695055;59;21052;-42
2022/11/23 01:36:56;;;;;;;52.83;45.88;;;20.70;50.90;;;;;;4779736;55;20996;-39
2022/11/23 01:41:57;;;;;;;52.42;44.70;;;20.70;50.90;;;;;;4694171;59;21631;-46
2022/11/23 01:47:08;;;;;;;52.72;44.53;;;20.70;50.90;;;;;;4781486;55;21478;-36
2022/11/23 01:52:20;;;;;;;52.53;44.15;;;20.70;50.90;;;;;;4759885;55;20988;-30
2022/11/23 01:57:31;;;;;;;50.92;43.47;;;20.70;50.90;;;;;;5169911;55;21049;-35
2022/11/23 02:02:35;;;;;;;50.75;43.72;;;20.70;50.90;;;;;;4980007;55;21016;-33
2022/11/23 02:07:37;;;;;;;50.20;41.88;;;20.70;51.60;;;;;;4796082;55;21071;-37
2022/11/23 02:12:38;;;;;;;47.92;41.40;;;20.70;51.00;;;;;;4710884;55;21008;-42
2022/11/23 02:17:38;;;;;;;50.90;44.03;;;20.70;51.00;;;;;;4750750;55;21031;-43
2022/11/23 02:25:37;;;;;;;46.60;40.75;;;20.70;51.00;;;;;;4969604;55;21020;-39
2022/11/23 02:30:38;;;;;;;46.35;40.30;;;20.70;51.10;;;;;;4694542;59;21043;-38
2022/11/23 02:35:51;;;;;;;49.10;41.50;;;20.70;51.00;;;;;;4779194;55;21011;-42
2022/11/23 02:40:52;;;;;;;46.50;39.95;;;20.70;51.00;;;;;;4823739;55;21083;-28
2022/11/23 02:45:56;;;;;;;43.95;38.88;;;20.70;51.00;;;;;;4694602;59;21083;-41
2022/11/23 02:50:57;;;;;;;45.80;38.78;;;20.70;51.00;;;;;;4694887;59;21017;-35
2022/11/23 02:55:57;;;;;;;44.67;38.17;;;20.70;51.00;;;;;;4925751;55;21161;-41
2022/11/23 03:00:58;;;;;;;46.05;38.95;;;20.70;51.00;;;;;;4981504;55;21454;-29
2022/11/23 03:05:59;;;;;;;45.33;39.67;;;20.70;51.00;;;;;;4978852;55;21696;-44
2022/11/23 03:11:01;;;;;;;44.53;37.40;;;20.70;51.00;;;;;;4694677;59;21164;-35
2022/11/23 03:16:01;;;;;;;45.12;38.00;;;20.70;51.00;;;;;;4992600;55;21478;-35
2022/11/23 03:21:04;;;;;;;41.45;35.88;;;20.70;51.10;;;;;;4694232;59;20984;-36
2022/11/23 03:26:05;;;;;;;42.08;36.20;;;20.70;51.00;;;;;;4940033;55;21510;-41
2022/11/23 03:31:06;;;;;;;43.35;37.03;;;20.70;51.00;;;;;;5127713;55;21072;-32
2022/11/23 03:36:07;;;;;;;42.70;36.80;;;20.70;51.10;;;;;;4694958;59;21475;-42
2022/11/23 03:41:08;;;;;;;43.03;35.72;;;20.70;51.00;;;;;;4824679;55;21007;-38
2022/11/23 03:46:09;;;;;;;40.65;35.55;;;20.70;51.10;;;;;;5169747;55;21060;-37
2022/11/23 03:51:10;;;;;;;42.25;36.30;;;20.70;51.10;;;;;;5058972;55;21135;-38
2022/11/23 03:56:10;;;;;;;41.35;35.50;;;20.70;51.10;;;;;;4882852;55;21525;-42
2022/11/23 04:01:11;;;;;;;40.20;33.72;;;20.70;51.10;;;;;;4694906;59;21060;-44
2022/11/23 04:06:12;;;;;;;40.45;34.22;;;20.70;51.20;;;;;;4801917;55;21007;-47
2022/11/23 04:11:13;;;;;;;39.25;33.95;;;20.70;51.10;;;;;;4800480;55;21000;-42
2022/11/23 04:16:14;;;;;;;38.58;32.42;;;20.70;51.20;;;;;;5020961;55;21393;-41
2022/11/23 04:21:15;;;;;;;40.20;35.13;;;20.70;51.30;;;;;;4802652;55;21707;-39
2022/11/23 04:26:15;;;;;;;39.88;34.25;;;20.70;51.20;;;;;;4796549;55;21044;-43
2022/11/23 04:31:16;;;;;;;36.35;32.35;;;20.70;51.20;;;;;;4797894;55;21016;-41
2022/11/23 04:36:17;;;;;;;37.22;32.42;;;20.70;51.20;;;;;;4752835;55;21549;-35
2022/11/23 04:41:18;;;;;;;37.47;32.38;;;20.70;51.30;;;;;;4728479;55;21016;-43
2022/11/23 04:46:19;;;;;;;37.28;32.15;;;20.70;51.30;;;;;;4727909;55;20988;-38
2022/11/23 04:51:20;;;;;;;37.03;31.95;;;20.70;51.30;;;;;;4773805;55;21008;-35
2022/11/23 04:56:20;;;;;;;35.95;31.35;;;20.70;51.30;;;;;;4772640;55;21009;-36
2022/11/23 05:01:21;;;;;;;36.03;31.58;;;20.70;51.30;;;;;;5142844;55;21084;-44
2022/11/23 05:06:22;;;;;;;37.00;31.42;;;20.70;51.40;;;;;;4694659;59;20991;-45
2022/11/23 05:11:23;;;;;;;34.80;29.67;;;20.60;51.50;;;;;;4775572;55;21008;-43
2022/11/23 05:16:24;;;;;;;34.95;29.92;;;20.70;51.50;;;;;;4798530;55;21087;-40
2022/11/23 05:21:24;;;;;;;36.65;30.55;;;20.70;51.60;;;;;;4749598;55;21494;-37
2022/11/23 05:26:25;;;;;;;35.33;29.98;;;20.70;51.60;;;;;;5169225;55;21064;-43
2022/11/23 05:31:26;;;;;;;34.80;29.98;;;20.70;51.70;;;;;;4732047;55;21000;-44
2022/11/23 05:36:27;;;;;;;34.47;29.65;;;20.70;51.70;;;;;;4794026;55;21024;-45
2022/11/23 05:41:28;;;;;;;32.53;27.92;;;20.70;51.70;;;;;;4731785;55;21008;-29
2022/11/23 05:46:28;;;;;;;33.67;28.80;;;20.60;51.60;;;;;;4713410;55;21000;-45
2022/11/23 05:51:30;;;;;;;35.47;29.35;;;20.70;51.70;;;;;;4726633;55;21028;-48
2022/11/23 05:56:31;;;;;;;32.35;26.80;;;20.70;51.70;;;;;;4735399;55;21498;-48
2022/11/23 06:01:32;;;;;;;36.40;30.02;;;20.70;51.70;;;;;;4737685;55;21012;-38
2022/11/23 06:06:33;;;;;;;33.88;28.75;;;20.70;51.70;;;;;;4786139;55;21135;-40
2022/11/23 06:11:34;;;;;;;31.73;28.23;;;20.60;51.60;;;;;;4870327;55;21582;-43
2022/11/23 06:16:35;;;;;;;32.63;27.75;;;20.70;51.70;;;;;;4708970;55;21550;-33
2022/11/23 06:21:36;;;;;;;33.03;27.02;;;20.60;52.20;;;;;;4789748;55;21514;-44
2022/11/23 06:26:36;;;;;;;33.90;28.77;;;20.70;51.70;;;;;;4992153;55;21545;-37
2022/11/23 06:31:37;;;;;;;33.63;28.65;;;20.70;51.70;;;;;;4860674;55;21060;-40
2022/11/23 06:36:38;;;;;;;34.03;28.35;;;20.70;51.70;;;;;;4694472;57;21024;-41
2022/11/23 06:41:39;;;;;;;32.63;28.25;;;20.60;51.60;;;;;;4742693;55;21036;-43
2022/11/23 06:46:40;;;;;;;33.33;28.27;;;20.70;51.70;;;;;;4810528;55;21020;-49
2022/11/23 06:51:40;;;;;;;35.97;30.75;;;20.70;52.30;;;;;;4694323;59;21016;-44
2022/11/23 06:56:41;;;;;;;34.05;29.87;;;20.70;51.70;;;;;;4847188;55;21569;-42
2022/11/23 07:01:42;;;;;;;34.70;28.92;;;20.60;51.60;;;;;;4758457;55;21115;-46
2022/11/23 07:06:43;;;;;;;34.55;30.08;;;20.60;51.60;;;;;;4694894;59;21063;-47
2022/11/23 07:11:44;;;;;;;35.90;30.60;;;20.70;51.70;;;;;;4812423;55;21486;-42
2022/11/23 07:16:45;;;;;;;35.55;30.80;;;20.70;51.60;;;;;;5049781;55;21015;-42
2022/11/23 07:21:46;;;;;;;36.97;31.60;;;20.70;52.30;;;;;;4693921;59;21097;-38
2022/11/23 07:26:47;;;;;;;41.22;33.22;;;20.60;51.60;;;;;;4746096;55;21016;-38
2022/11/23 07:31:48;;;;;;;36.78;30.98;;;20.70;51.60;;;;;;4823934;55;21058;-40
2022/11/23 07:36:48;;;;;;;38.10;32.40;;;20.60;51.60;;;;;;4823256;55;21562;-37
2022/11/23 07:41:49;;;;;;;41.92;33.90;;;20.60;51.60;;;;;;4968138;55;21142;-43
2022/11/23 07:46:53;;;;;;;38.25;33.08;;;20.70;51.60;;;;;;4736127;55;21139;-47
2022/11/23 07:51:55;;;;;;;39.65;32.70;;;20.60;51.60;;;;;;5169438;55;21008;-51
2022/11/23 07:56:55;;;;;;;38.63;32.85;;;20.70;51.70;;;;;;5017286;55;21526;-42
2022/11/23 08:01:56;;;;;;;41.17;34.35;;;20.70;51.60;;;;;;4872858;55;21060;-49
2022/11/23 08:06:57;;;;;;;43.67;36.75;;;20.60;51.60;;;;;;4714629;55;21012;-42
2022/11/23 08:11:58;;;;;;;46.80;39.10;;;20.70;51.70;;;;;;4744786;55;21489;-42
2022/11/23 08:16:59;;;;;;;50.78;41.37;;;20.70;51.80;;;;;;4694789;59;21032;-44
2022/11/23 08:22:00;;;;;;;52.35;42.70;;;20.80;51.90;;;;;;4694132;59;21055;-41
2022/11/23 08:27:00;;;;;;;55.00;44.42;;;20.80;51.90;;;;;;4925320;55;21000;-47
2022/11/23 08:32:01;;;;;;;57.85;47.75;;;20.80;51.90;;;;;;4707440;55;21123;-49
2022/11/23 08:37:02;;;;;;;61.97;50.15;;;20.80;52.00;;;;;;4695132;56;21075;-43
2022/11/23 08:42:03;;;;;;;64.03;52.40;;;20.80;52.00;;;;;;4830829;55;21131;-34
2022/11/23 08:47:04;;;;;;;64.78;51.45;;;20.90;52.00;;;;;;4693927;59;21574;-41
2022/11/23 08:52:05;;;;;;;70.65;54.85;;;20.90;52.30;;;;;;4782490;55;21052;-31
2022/11/23 08:57:05;;;;;;;77.37;56.50;;;20.90;52.50;;;;;;4765972;55;21044;-30
2022/11/23 09:02:09;;;;;;;77.35;56.47;;;21.00;52.60;;;;;;4693902;59;21514;-45
2022/11/23 09:07:10;;;;;;;73.18;56.03;;;21.00;52.70;;;;;;4694543;59;21008;-42
2022/11/23 09:12:11;;;;;;;76.82;56.78;;;21.00;53.00;;;;;;4695014;59;21079;-37
2022/11/23 09:17:12;;;;;;;78.95;59.83;;;21.00;53.00;;;;;;4784874;55;21015;-41
2022/11/23 09:22:13;;;;;;;85.30;62.10;;;21.10;53.10;;;;;;4788418;55;21016;-43
2022/11/23 09:27:14;;;;;;;81.95;62.67;;;21.10;53.00;;;;;;4694335;59;21199;-40
2022/11/23 09:32:15;;;;;;;87.78;65.28;;;21.10;53.00;;;;;;4733226;55;21028;-47
2022/11/23 09:37:16;;;;;;;97.18;63.47;;;21.10;53.10;;;;;;4750298;55;21000;-39
2022/11/23 09:44:01;;;;;;;89.20;64.85;;;21.10;53.10;;;;;;4767755;55;21028;-40
2022/11/23 09:49:17;;;;;;;98.85;67.40;;;21.20;53.00;;;;;;4752692;55;21008;-43
2022/11/23 09:54:35;;;;;;;93.97;67.33;;;21.20;53.00;;;;;;4899884;55;21072;-43
2022/11/23 09:59:41;;;;;;;104.05;72.32;;;21.20;52.90;;;;;;4698833;55;21056;-44
2022/11/23 10:04:43;;;;;;;104.45;76.22;;;21.20;52.60;;;;;;4707298;55;21585;-43
2022/11/23 10:10:07;;;;;;;112.20;78.50;;;21.10;52.30;;;;;;4756335;55;21024;-45
2022/11/23 10:15:25;;;;;;;105.93;77.05;;;21.10;52.10;;;;;;4696657;55;21055;-42
2022/11/23 10:20:51;;;;;;;121.15;86.28;;;21.10;51.90;;;;;;4712069;55;20992;-46
2022/11/23 10:25:52;;;;;;;134.02;91.40;;;21.10;51.70;;;;;;4693968;59;21060;-44
2022/11/23 10:31:01;;;;;;;128.07;90.87;;;21.10;51.50;;;;;;4784210;55;21094;-38
2022/11/23 10:36:02;;;;;;;131.52;95.80;;;21.10;51.70;;;;;;4766095;55;21024;-46
2022/11/23 10:41:12;;;;;;;135.18;97.00;;;21.10;51.90;;;;;;4805181;55;21478;-32
2022/11/23 10:47:31;;;;;;;138.68;100.10;;;21.20;51.90;;;;;;4707840;55;20969;-37
2022/11/23 10:52:32;;;;;;;143.68;103.95;;;21.20;51.90;;;;;;4748071;55;21067;-42
2022/11/23 10:57:41;;;;;;;142.25;105.35;;;21.20;52.00;;;;;;4720574;55;21498;-44
2022/11/23 11:02:48;;;;;;;139.85;104.12;;;21.20;52.10;;;;;;4714854;55;21096;-48
2022/11/23 11:07:49;;;;;;;154.12;109.78;;;21.20;52.10;;;;;;4754455;55;21054;-41
2022/11/23 11:12:50;;;;;;;168.30;116.90;;;21.30;52.20;;;;;;4694826;59;21122;-38
2022/11/23 11:18:00;;;;;;;159.32;119.30;;;21.30;52.00;;;;;;4696701;55;21059;-44
2022/11/23 11:23:16;;;;;;;167.73;121.45;;;21.30;52.00;;;;;;4694716;59;21016;-45
2022/11/23 11:28:36;;;;;;;163.50;120.57;;;21.30;52.20;;;;;;4745944;55;20992;-46
2022/11/23 11:33:47;;;;;;;166.75;120.53;;;21.30;52.20;;;;;;4695178;59;21068;-32
2022/11/23 11:38:57;;;;;;;168.95;121.95;;;21.30;52.20;;;;;;4694874;59;21044;-40
2022/11/23 11:44:06;;;;;;;177.55;129.48;;;21.30;52.30;;;;;;4694977;59;21560;-40
2022/11/23 11:50:19;;;;;;;173.77;127.62;;;21.40;52.30;;;;;;4730007;55;21553;-30
2022/11/23 11:56:21;;;;;;;177.45;130.82;;;21.30;52.30;;;;;;4721824;55;21044;-47
2022/11/23 12:01:49;;;;;;;179.25;133.30;;;21.40;52.30;;;;;;4707845;55;21517;-38
2022/11/23 12:06:58;;;;;;;180.35;132.07;;;21.40;52.30;;;;;;4783644;55;21090;-42
2022/11/23 12:11:59;;;;;;;188.90;135.63;;;21.40;52.30;;;;;;4741837;55;21079;-42
2022/11/23 12:17:25;;;;;;;182.20;134.57;;;21.30;52.00;;;;;;4776803;55;21558;-38
2022/11/23 12:26:46;;;;;;;184.80;133.45;;;21.30;51.90;;;;;;4716496;55;21020;-41
2022/11/23 12:31:50;;;;;;;196.65;142.82;;;21.30;51.70;;;;;;4700225;55;21049;-47
2022/11/23 12:37:27;;;;;;;177.18;134.95;;;21.30;51.50;;;;;;4770359;55;21475;-37
2022/11/23 12:42:52;;;;;;;183.65;136.55;;;21.20;51.30;;;;;;4917450;55;21035;-41
2022/11/23 12:51:57;;;;;;;182.23;139.00;;;21.20;51.20;;;;;;4721015;55;21517;-41
2022/11/23 12:57:21;;;;;;;183.43;138.43;;;21.20;51.10;;;;;;4869325;55;21549;-42
2022/11/23 13:04:14;;;;;;;191.32;142.40;;;21.20;50.70;;;;;;4897023;55;21032;-41
2022/11/23 13:09:41;;;;;;;192.60;142.70;;;21.20;51.20;;;;;;4725811;55;21039;-44
2022/11/23 13:21:49;;;;;;;184.98;138.15;;;21.20;51.40;;;;;;4695243;59;21016;-47
2022/11/23 13:28:39;;;;;;;182.70;137.65;;;21.30;51.70;;;;;;4896801;55;20996;-44
2022/11/23 13:33:51;;;;;;;187.27;134.32;;;21.30;51.70;;;;;;4706961;55;21012;-40
2022/11/23 13:38:52;;;;;;;180.87;135.25;;;21.40;51.90;;;;;;4694517;59;21509;-36
2022/11/23 13:43:53;;;;;;;195.57;140.05;;;21.40;51.80;;;;;;4825059;55;20996;-33
2022/11/23 13:48:59;;;;;;;190.70;139.65;;;21.40;51.80;;;;;;4695170;59;20990;-27
2022/11/23 13:54:17;;;;;;;184.05;134.32;;;21.40;51.90;;;;;;4836349;55;21657;-35
2022/11/23 13:59:31;;;;;;;184.40;134.20;;;21.40;51.90;;;;;;4822904;55;21008;-32
2022/11/23 14:04:42;;;;;;;186.77;137.18;;;21.40;52.70;;;;;;4824663;55;21071;-39
2022/11/23 14:10:05;;;;;;;192.10;140.25;;;21.50;52.10;;;;;;4707912;55;20987;-35
2022/11/23 14:15:18;;;;;;;183.43;132.43;;;21.50;52.00;;;;;;4694977;59;21068;-36
2022/11/23 14:20:58;;;;;;;179.68;133.45;;;21.50;52.00;;;;;;4877156;55;21012;-27
2022/11/23 14:29:44;;;;;;;179.20;132.05;;;21.50;52.10;;;;;;4758467;55;21542;-35
2022/11/23 14:38:02;;;;;;;166.15;126.28;;;21.50;52.40;;;;;;4716940;55;21100;-42
2022/11/23 14:43:04;;;;;;;166.50;124.95;;;21.50;52.20;;;;;;4726403;55;21080;-47
2022/11/23 14:48:30;;;;;;;160.73;121.78;;;21.50;52.40;;;;;;4694430;59;21052;-45
2022/11/23 14:53:40;;;;;;;160.63;119.03;;;21.50;52.30;;;;;;4759751;55;21209;-47
2022/11/23 14:58:40;;;;;;;162.52;122.05;;;21.40;52.30;;;;;;4770291;55;21101;-43
2022/11/23 15:03:41;;;;;;;164.82;125.07;;;21.40;52.30;;;;;;4692045;59;21032;-46
2022/11/23 15:08:56;;;;;;;157.88;120.53;;;21.40;52.30;;;;;;4729884;55;21016;-45
2022/11/23 15:14:02;;;;;;;160.10;121.93;;;21.30;52.40;;;;;;4698809;55;21000;-47
2022/11/23 15:19:17;;;;;;;162.60;122.87;;;21.30;52.50;;;;;;4694928;59;21494;-43
2022/11/23 15:24:23;;;;;;;155.15;120.10;;;21.30;52.50;;;;;;4728485;55;21130;-43
2022/11/23 15:29:29;;;;;;;152.57;118.80;;;21.30;52.60;;;;;;4766015;55;21545;-43
2022/11/23 15:34:30;;;;;;;157.85;121.43;;;21.20;52.50;;;;;;4773965;55;21008;-39
2022/11/23 15:39:31;;;;;;;154.35;122.35;;;21.20;52.60;;;;;;4813517;55;21497;-41
2022/11/23 15:44:34;;;;;;;155.98;121.97;;;21.20;52.60;;;;;;4694447;59;20989;-48
2022/11/23 15:49:39;;;;;;;158.73;123.57;;;21.20;52.60;;;;;;4695161;59;21507;-45
2022/11/23 15:54:40;;;;;;;155.77;120.20;;;21.10;52.60;;;;;;4694504;59;21028;-48
2022/11/23 15:59:48;;;;;;;161.07;124.80;;;21.10;52.60;;;;;;4760575;55;21027;-43
2022/11/23 16:05:02;;;;;;;;;;;21.10;52.60;;;;;;4698578;59;20993;-51
2022/11/23 16:10:54;;;;;;;162.10;122.93;;;21.10;52.60;;;;;;4695323;55;20137;-47
2022/11/23 16:15:59;;;;;;;160.27;121.75;;;21.10;52.60;;;;;;4713619;55;21063;-51
2022/11/23 16:21:03;;;;;;;155.45;120.82;;;21.10;52.60;;;;;;4740337;55;21036;-40
2022/11/23 16:26:05;;;;;;;157.10;119.93;;;21.10;52.50;;;;;;4733429;55;21535;-41
2022/11/23 16:31:24;;;;;;;156.63;123.18;;;21.10;52.50;;;;;;4864295;55;21598;-42
2022/11/23 16:36:28;;;;;;;151.35;120.37;;;21.10;52.50;;;;;;4798082;55;21064;-41
2022/11/23 16:41:29;;;;;;;152.50;120.53;;;21.00;52.50;;;;;;4780709;55;21490;-46
2022/11/23 16:46:31;;;;;;;151.93;119.37;;;21.00;52.50;;;;;;4821700;55;21028;-47
2022/11/23 16:51:31;;;;;;;155.18;118.85;;;21.00;52.40;;;;;;4989865;55;21008;-47
2022/11/23 16:56:34;;;;;;;146.90;114.62;;;21.00;52.40;;;;;;4694615;57;21067;-42
2022/11/23 17:01:36;;;;;;;151.12;117.85;;;21.00;52.40;;;;;;4693768;59;21020;-39
2022/11/23 17:06:39;;;;;;;150.27;115.07;;;21.00;52.40;;;;;;4695055;55;21059;-42
2022/11/23 17:11:44;;;;;;;149.45;116.80;;;21.00;52.40;;;;;;4694969;59;21509;-40
2022/11/23 17:16:45;;;;;;;145.32;116.03;;;21.00;52.30;;;;;;4788139;55;21000;-39
2022/11/23 17:21:46;;;;;;;147.18;113.15;;;21.00;52.30;;;;;;4952517;55;21031;-41
2022/11/23 17:26:52;;;;;;;147.02;116.10;;;21.00;52.40;;;;;;4694991;59;21023;-41
2022/11/23 17:31:53;;;;;;;151.02;116.37;;;21.00;52.30;;;;;;4941859;55;21036;-47
2022/11/23 17:36:54;;;;;;;148.20;115.70;;;21.00;52.30;;;;;;4768639;55;21020;-48
2022/11/23 17:41:55;;;;;;;147.68;117.78;;;21.00;52.30;;;;;;4693898;59;21076;-40
2022/11/23 17:46:58;;;;;;;147.98;117.47;;;21.00;52.30;;;;;;4818879;55;21538;-45
2022/11/23 17:51:59;;;;;;;151.68;116.95;;;21.00;52.20;;;;;;4812949;55;21028;-46
2022/11/23 17:57:00;;;;;;;155.27;120.65;;;21.00;52.20;;;;;;4692766;59;21024;-47
2022/11/23 18:02:01;;;;;;;147.60;115.72;;;21.00;52.20;;;;;;4834939;55;21490;-45
2022/11/23 18:07:02;;;;;;;146.23;115.45;;;21.00;52.20;;;;;;4694620;59;21016;-48
2022/11/23 18:12:03;;;;;;;149.87;116.85;;;21.00;52.10;;;;;;4700193;55;21011;-51
2022/11/23 18:17:04;;;;;;;147.70;117.95;;;21.00;52.10;;;;;;4694476;59;21012;-43
2022/11/23 18:22:05;;;;;;;154.50;119.32;;;21.00;52.20;;;;;;4693870;57;21601;-43
2022/11/23 18:27:06;;;;;;;142.73;114.82;;;21.00;52.10;;;;;;4694596;59;21024;-43
2022/11/23 18:32:07;;;;;;;147.77;115.82;;;21.00;52.00;;;;;;4761141;55;21543;-38
2022/11/23 18:37:08;;;;;;;143.57;114.53;;;21.00;52.10;;;;;;4694599;57;21562;-40
2022/11/23 18:42:09;;;;;;;154.95;117.70;;;21.00;52.30;;;;;;4884230;55;21095;-40
2022/11/23 18:47:10;;;;;;;145.48;113.78;;;21.00;52.00;;;;;;4723461;55;21071;-37
2022/11/23 18:52:12;;;;;;;143.30;112.68;;;20.90;51.90;;;;;;4763007;55;21064;-43
2022/11/23 18:57:15;;;;;;;146.87;114.30;;;20.90;51.90;;;;;;4694079;59;21549;-42
2022/11/23 19:02:16;;;;;;;151.87;114.95;;;20.90;51.40;;;;;;4839054;55;21502;-45
2022/11/23 19:07:17;;;;;;;144.20;115.07;;;21.00;52.70;;;;;;4706145;55;21075;-40
2022/11/23 19:12:18;;;;;;;147.90;114.10;;;20.90;51.90;;;;;;4917829;55;21471;-38
2022/11/23 19:17:19;;;;;;;134.55;107.22;;;21.00;52.00;;;;;;4821500;55;21001;-42
2022/11/23 19:22:20;;;;;;;137.95;107.72;;;21.00;52.10;;;;;;5026506;55;21067;-41
2022/11/23 19:27:20;;;;;;;135.35;108.68;;;20.90;51.90;;;;;;4822178;55;21534;-41
2022/11/23 19:32:21;;;;;;;139.23;106.28;;;20.90;51.80;;;;;;4863694;55;21055;-35
2022/11/23 19:37:22;;;;;;;131.02;105.25;;;20.90;51.80;;;;;;4777792;55;21008;-42
2022/11/23 19:42:23;;;;;;;134.87;106.10;;;20.90;51.80;;;;;;4771310;55;21011;-37
2022/11/23 19:47:23;;;;;;;134.35;103.65;;;20.90;51.70;;;;;;4770016;55;21019;-39
2022/11/23 19:52:27;;;;;;;132.43;103.50;;;20.90;51.80;;;;;;4694830;56;21544;-42
2022/11/23 19:57:28;;;;;;;128.68;101.60;;;20.90;51.70;;;;;;4694289;59;21525;-47
2022/11/23 20:02:28;;;;;;;128.80;103.03;;;20.90;51.80;;;;;;4694548;59;21024;-48
2022/11/23 20:07:30;;;;;;;127.60;99.28;;;20.90;51.70;;;;;;4695343;55;21040;-46
2022/11/23 20:12:32;;;;;;;123.00;100.20;;;20.90;51.70;;;;;;4694941;59;21577;-40
2022/11/23 20:17:33;;;;;;;125.18;96.78;;;20.90;51.80;;;;;;4815339;55;21024;-37
2022/11/23 20:22:33;;;;;;;117.68;93.12;;;20.90;51.60;;;;;;4694153;56;21143;-45
2022/11/23 20:27:34;;;;;;;122.22;94.82;;;20.90;51.70;;;;;;4718396;55;21022;-39
2022/11/23 20:32:35;;;;;;;123.87;96.95;;;20.90;51.70;;;;;;4695151;59;21004;-41
2022/11/23 20:37:36;;;;;;;121.05;95.12;;;20.90;51.60;;;;;;4735435;55;21028;-44
2022/11/23 20:42:37;;;;;;;116.32;91.40;;;20.90;51.60;;;;;;4904435;55;21479;-38
2022/11/23 20:47:37;;;;;;;115.80;90.78;;;20.90;51.60;;;;;;4729961;55;21020;-36
2022/11/23 20:52:38;;;;;;;113.28;89.72;;;20.90;51.50;;;;;;4694758;59;21020;-45
2022/11/23 20:57:39;;;;;;;112.65;89.82;;;20.90;51.30;;;;;;4693950;59;21100;-42
2022/11/23 21:02:40;;;;;;;112.65;91.07;;;20.90;51.00;;;;;;4849425;55;21132;-40
2022/11/23 21:07:41;;;;;;;109.07;87.47;;;20.90;51.50;;;;;;4739589;55;21064;-41
2022/11/23 21:18:01;;;;;;;108.05;88.28;;;20.90;51.20;;;;;;4694792;55;21016;-47
2022/11/23 21:23:02;;;;;;;108.37;85.55;;;20.90;51.20;;;;;;4817519;55;21020;-45
2022/11/23 21:28:03;;;;;;;103.00;81.47;;;20.90;51.10;;;;;;4831238;55;21443;-36
2022/11/23 21:33:04;;;;;;;102.40;81.37;;;20.90;51.20;;;;;;4829529;55;21507;-38
2022/11/23 21:38:05;;;;;;;102.43;84.15;;;20.90;51.20;;;;;;4695146;59;21035;-35
2022/11/23 21:43:06;;;;;;;105.12;83.37;;;20.90;51.10;;;;;;4693996;59;21082;-44
2022/11/23 21:48:07;;;;;;;98.43;78.95;;;20.90;51.10;;;;;;4967733;55;21057;-35
2022/11/23 21:53:08;;;;;;;98.40;77.57;;;20.80;51.10;;;;;;4997167;55;21598;-45
2022/11/23 21:58:09;;;;;;;96.22;76.95;;;20.80;51.20;;;;;;4726139;55;21020;-39
2022/11/23 22:03:10;;;;;;;93.97;76.53;;;20.90;51.00;;;;;;4746269;55;21035;-46
2022/11/23 22:08:11;;;;;;;93.37;74.62;;;20.80;50.90;;;;;;4695153;59;21466;-34
2022/11/23 22:13:12;;;;;;;94.57;75.78;;;20.80;50.90;;;;;;4769728;55;21000;-35
2022/11/23 22:18:13;;;;;;;92.75;74.05;;;20.80;50.90;;;;;;4720704;55;21016;-31
2022/11/23 22:23:13;;;;;;;89.03;72.10;;;20.80;50.80;;;;;;4694012;59;21031;-43
2022/11/23 22:28:14;;;;;;;96.85;75.25;;;20.80;50.90;;;;;;4717782;55;21008;-47
2022/11/23 22:33:15;;;;;;;86.93;68.53;;;20.80;50.80;;;;;;4903472;55;21035;-45
2022/11/23 22:38:16;;;;;;;89.03;70.87;;;20.80;50.80;;;;;;4891427;55;21070;-43
2022/11/23 22:43:17;;;;;;;92.37;72.68;;;20.80;50.80;;;;;;4765374;55;21101;-39
2022/11/23 22:48:18;;;;;;;83.68;67.07;;;20.80;51.00;;;;;;4742033;55;21044;-43
2022/11/23 22:53:18;;;;;;;87.40;70.80;;;20.80;50.90;;;;;;4851266;55;21094;-43
2022/11/23 22:58:20;;;;;;;84.37;66.93;;;20.80;50.90;;;;;;4772604;55;21100;-47
2022/11/23 23:03:20;;;;;;;82.03;64.80;;;20.80;50.80;;;;;;4693398;59;20984;-43
2022/11/23 23:08:22;;;;;;;84.62;66.10;;;20.80;50.80;;;;;;5169949;55;21063;-36
2022/11/23 23:13:22;;;;;;;78.20;64.03;;;20.80;50.80;;;;;;5061811;55;21051;-35
2022/11/23 23:18:23;;;;;;;80.95;65.20;;;20.80;50.80;;;;;;5036298;55;21016;-35
2022/11/23 23:23:24;;;;;;;77.85;62.40;;;20.80;50.90;;;;;;4911063;55;21564;-43
2022/11/23 23:28:25;;;;;;;78.30;63.90;;;20.80;50.80;;;;;;4938545;55;21067;-41
2022/11/23 23:33:28;;;;;;;78.82;62.20;;;20.80;50.90;;;;;;4821189;55;21068;-44
2022/11/23 23:38:29;;;;;;;76.95;62.08;;;20.80;50.80;;;;;;4778891;55;21510;-29
2022/11/23 23:43:30;;;;;;;75.35;60.47;;;20.80;50.90;;;;;;4809446;55;21494;-37
2022/11/23 23:48:33;;;;;;;74.25;59.50;;;20.80;50.90;;;;;;4786502;55;21067;-45
2022/11/23 23:53:35;;;;;;;74.97;58.55;;;20.80;50.80;;;;;;4875926;55;21000;-46
2022/11/23 23:58:36;;;;;;;72.62;59.92;;;20.80;50.80;;;;;;4789932;55;21024;-47
